sensor_id;sensor_type;location;lat;lon;timestamp;temperature;humidity
22185;DHT22;11258;52.516;13.318;2022-10-31T00:02:04;15.10;99.90
22185;DHT22;11258;52.516;13.318;2022-10-31T00:04:30;15.10;99.90
22185;DHT22;11258;52.516;13.318;2022-10-31T00:06:56;15.10;99.90
22185;DHT22;11258;52.516;13.318;2022-10-31T00:09:22;15.10;99.90
22185;DHT22;11258;52.516;13.318;2022-10-31T00:11:47;15.00;99.90
22185;DHT22;11258;52.516;13.318;2022-10-31T00:14:13;15.00;99.90
22185;DHT22;11258;52.516;13.318;2022-10-31T00:16:39;15.00;99.90
22185;DHT22;11258;52.516;13.318;2022-10-31T00:19:07;15.10;99.90
22185;DHT22;11258;52.516;13.318;2022-10-31T00:21:32;15.00;99.90
22185;DHT22;11258;52.516;13.318;2022-10-31T00:23:59;15.00;99.90
22185;DHT22;11258;52.516;13.318;2022-10-31T00:26:30;15.10;99.90
22185;DHT22;11258;52.516;13.318;2022-10-31T00:28:57;15.00;99.90
22185;DHT22;11258;52.516;13.318;2022-10-31T00:31:22;15.00;99.90
22185;DHT22;11258;52.516;13.318;2022-10-31T00:33:48;15.00;99.90
22185;DHT22;11258;52.516;13.318;2022-10-31T00:36:17;15.00;99.90
22185;DHT22;11258;52.516;13.318;2022-10-31T00:38:43;15.00;99.90
22185;DHT22;11258;52.516;13.318;2022-10-31T00:41:10;14.90;99.90
22185;DHT22;11258;52.516;13.318;2022-10-31T00:43:36;14.90;99.90
22185;DHT22;11258;52.516;13.318;2022-10-31T00:46:02;14.80;99.90
22185;DHT22;11258;52.516;13.318;2022-10-31T00:48:28;14.80;99.90
22185;DHT22;11258;52.516;13.318;2022-10-31T00:50:53;14.70;99.90
22185;DHT22;11258;52.516;13.318;2022-10-31T00:53:19;14.70;99.90
22185;DHT22;11258;52.516;13.318;2022-10-31T00:55:45;14.70;99.90
22185;DHT22;11258;52.516;13.318;2022-10-31T00:58:10;14.70;99.90
22185;DHT22;11258;52.516;13.318;2022-10-31T01:00:36;14.80;99.90
22185;DHT22;11258;52.516;13.318;2022-10-31T01:03:01;14.80;99.90
22185;DHT22;11258;52.516;13.318;2022-10-31T01:05:27;14.80;99.90
22185;DHT22;11258;52.516;13.318;2022-10-31T01:07:53;14.80;99.90
22185;DHT22;11258;52.516;13.318;2022-10-31T01:10:18;14.70;99.90
22185;DHT22;11258;52.516;13.318;2022-10-31T01:12:46;14.70;99.90
22185;DHT22;11258;52.516;13.318;2022-10-31T01:15:13;14.70;99.90
22185;DHT22;11258;52.516;13.318;2022-10-31T01:17:39;14.70;99.90
22185;DHT22;11258;52.516;13.318;2022-10-31T01:20:07;14.60;99.90
22185;DHT22;11258;52.516;13.318;2022-10-31T01:22:33;14.60;99.90
22185;DHT22;11258;52.516;13.318;2022-10-31T01:24:59;14.60;99.90
22185;DHT22;11258;52.516;13.318;2022-10-31T01:27:25;14.60;99.90
22185;DHT22;11258;52.516;13.318;2022-10-31T01:29:51;14.50;99.90
22185;DHT22;11258;52.516;13.318;2022-10-31T01:32:16;14.60;99.90
22185;DHT22;11258;52.516;13.318;2022-10-31T01:34:42;14.60;99.90
22185;DHT22;11258;52.516;13.318;2022-10-31T01:37:07;14.60;99.90
22185;DHT22;11258;52.516;13.318;2022-10-31T01:39:33;14.60;99.90
22185;DHT22;11258;52.516;13.318;2022-10-31T01:41:58;14.50;99.90
22185;DHT22;11258;52.516;13.318;2022-10-31T01:46:59;14.50;99.90
22185;DHT22;11258;52.516;13.318;2022-10-31T01:49:46;14.50;99.90
22185;DHT22;11258;52.516;13.318;2022-10-31T01:52:25;14.50;99.90
22185;DHT22;11258;52.516;13.318;2022-10-31T01:54:57;14.50;99.90
22185;DHT22;11258;52.516;13.318;2022-10-31T01:57:25;14.50;99.90
22185;DHT22;11258;52.516;13.318;2022-10-31T01:59:54;14.50;99.90
22185;DHT22;11258;52.516;13.318;2022-10-31T02:02:21;14.40;99.90
22185;DHT22;11258;52.516;13.318;2022-10-31T02:04:47;14.40;99.90
22185;DHT22;11258;52.516;13.318;2022-10-31T02:07:41;14.40;99.90
22185;DHT22;11258;52.516;13.318;2022-10-31T02:10:08;14.40;99.90
22185;DHT22;11258;52.516;13.318;2022-10-31T02:12:34;14.40;99.90
22185;DHT22;11258;52.516;13.318;2022-10-31T02:15:01;14.40;99.90
22185;DHT22;11258;52.516;13.318;2022-10-31T02:17:29;14.40;99.90
22185;DHT22;11258;52.516;13.318;2022-10-31T02:20:22;14.40;99.90
22185;DHT22;11258;52.516;13.318;2022-10-31T02:25:37;14.30;99.90
22185;DHT22;11258;52.516;13.318;2022-10-31T02:31:30;14.30;99.90
22185;DHT22;11258;52.516;13.318;2022-10-31T02:34:21;14.30;99.90
22185;DHT22;11258;52.516;13.318;2022-10-31T02:37:08;14.30;99.90
22185;DHT22;11258;52.516;13.318;2022-10-31T02:39:59;14.30;99.90
22185;DHT22;11258;52.516;13.318;2022-10-31T02:43:05;14.20;99.90
22185;DHT22;11258;52.516;13.318;2022-10-31T02:48:16;14.30;99.90
22185;DHT22;11258;52.516;13.318;2022-10-31T02:50:49;14.30;99.90
22185;DHT22;11258;52.516;13.318;2022-10-31T02:53:16;14.30;99.90
22185;DHT22;11258;52.516;13.318;2022-10-31T02:55:44;14.20;99.90
22185;DHT22;11258;52.516;13.318;2022-10-31T02:58:15;14.20;99.90
22185;DHT22;11258;52.516;13.318;2022-10-31T03:06:21;14.10;99.90
22185;DHT22;11258;52.516;13.318;2022-10-31T03:09:04;14.10;99.90
22185;DHT22;11258;52.516;13.318;2022-10-31T03:11:41;14.10;99.90
22185;DHT22;11258;52.516;13.318;2022-10-31T03:14:11;14.10;99.90
22185;DHT22;11258;52.516;13.318;2022-10-31T03:19:08;14.10;99.90
22185;DHT22;11258;52.516;13.318;2022-10-31T03:21:45;14.10;99.90
22185;DHT22;11258;52.516;13.318;2022-10-31T03:24:13;14.00;99.90
22185;DHT22;11258;52.516;13.318;2022-10-31T03:26:42;14.00;99.90
22185;DHT22;11258;52.516;13.318;2022-10-31T03:29:12;14.00;99.90
22185;DHT22;11258;52.516;13.318;2022-10-31T03:31:46;14.10;99.90
22185;DHT22;11258;52.516;13.318;2022-10-31T03:34:15;14.00;99.90
22185;DHT22;11258;52.516;13.318;2022-10-31T03:36:45;14.00;99.90
22185;DHT22;11258;52.516;13.318;2022-10-31T03:39:14;14.00;99.90
22185;DHT22;11258;52.516;13.318;2022-10-31T03:41:47;14.00;99.90
22185;DHT22;11258;52.516;13.318;2022-10-31T03:44:19;14.00;99.90
22185;DHT22;11258;52.516;13.318;2022-10-31T03:46:46;14.00;99.90
22185;DHT22;11258;52.516;13.318;2022-10-31T03:49:12;14.00;99.90
22185;DHT22;11258;52.516;13.318;2022-10-31T03:51:45;14.00;99.90
22185;DHT22;11258;52.516;13.318;2022-10-31T03:59:58;13.90;99.90
22185;DHT22;11258;52.516;13.318;2022-10-31T04:02:30;13.90;99.90
22185;DHT22;11258;52.516;13.318;2022-10-31T04:04:58;13.90;99.90
22185;DHT22;11258;52.516;13.318;2022-10-31T04:07:28;13.90;99.90
22185;DHT22;11258;52.516;13.318;2022-10-31T04:09:56;13.90;99.90
22185;DHT22;11258;52.516;13.318;2022-10-31T04:12:24;13.90;99.90
22185;DHT22;11258;52.516;13.318;2022-10-31T04:14:51;13.80;99.90
22185;DHT22;11258;52.516;13.318;2022-10-31T04:17:19;13.90;99.90
22185;DHT22;11258;52.516;13.318;2022-10-31T04:19:46;13.90;99.90
22185;DHT22;11258;52.516;13.318;2022-10-31T04:22:12;13.90;99.90
22185;DHT22;11258;52.516;13.318;2022-10-31T04:24:39;13.80;99.90
22185;DHT22;11258;52.516;13.318;2022-10-31T04:27:05;13.90;99.90
22185;DHT22;11258;52.516;13.318;2022-10-31T04:29:31;13.90;99.90
22185;DHT22;11258;52.516;13.318;2022-10-31T04:31:56;13.80;99.90
22185;DHT22;11258;52.516;13.318;2022-10-31T04:34:22;13.80;99.90
22185;DHT22;11258;52.516;13.318;2022-10-31T04:36:48;13.90;99.90
22185;DHT22;11258;52.516;13.318;2022-10-31T04:39:13;13.90;99.90
22185;DHT22;11258;52.516;13.318;2022-10-31T04:41:39;13.90;99.90
22185;DHT22;11258;52.516;13.318;2022-10-31T04:44:04;13.80;99.90
22185;DHT22;11258;52.516;13.318;2022-10-31T04:46:30;13.80;99.90
22185;DHT22;11258;52.516;13.318;2022-10-31T04:48:55;13.80;99.90
22185;DHT22;11258;52.516;13.318;2022-10-31T04:51:21;13.80;99.90
22185;DHT22;11258;52.516;13.318;2022-10-31T04:53:47;13.80;99.90
22185;DHT22;11258;52.516;13.318;2022-10-31T04:56:13;13.80;99.90
22185;DHT22;11258;52.516;13.318;2022-10-31T04:58:38;13.70;99.90
22185;DHT22;11258;52.516;13.318;2022-10-31T05:01:04;13.70;99.90
22185;DHT22;11258;52.516;13.318;2022-10-31T05:03:29;13.70;99.90
22185;DHT22;11258;52.516;13.318;2022-10-31T05:05:55;13.70;99.90
22185;DHT22;11258;52.516;13.318;2022-10-31T05:08:20;13.70;99.90
22185;DHT22;11258;52.516;13.318;2022-10-31T05:10:46;13.70;99.90
22185;DHT22;11258;52.516;13.318;2022-10-31T05:13:12;13.60;99.90
22185;DHT22;11258;52.516;13.318;2022-10-31T05:15:37;13.70;99.90
22185;DHT22;11258;52.516;13.318;2022-10-31T05:18:03;13.70;99.90
22185;DHT22;11258;52.516;13.318;2022-10-31T05:20:30;13.70;99.90
22185;DHT22;11258;52.516;13.318;2022-10-31T05:22:56;13.70;99.90
22185;DHT22;11258;52.516;13.318;2022-10-31T05:25:24;13.70;99.90
22185;DHT22;11258;52.516;13.318;2022-10-31T05:27:52;13.70;99.90
22185;DHT22;11258;52.516;13.318;2022-10-31T05:30:20;13.70;99.90
22185;DHT22;11258;52.516;13.318;2022-10-31T05:32:48;13.70;99.90
22185;DHT22;11258;52.516;13.318;2022-10-31T05:35:20;13.70;99.90
22185;DHT22;11258;52.516;13.318;2022-10-31T05:37:46;13.70;99.90
22185;DHT22;11258;52.516;13.318;2022-10-31T05:40:13;13.70;99.90
22185;DHT22;11258;52.516;13.318;2022-10-31T05:42:39;13.70;99.90
22185;DHT22;11258;52.516;13.318;2022-10-31T05:45:09;13.70;99.90
22185;DHT22;11258;52.516;13.318;2022-10-31T05:47:35;13.70;99.90
22185;DHT22;11258;52.516;13.318;2022-10-31T05:50:01;13.70;99.90
22185;DHT22;11258;52.516;13.318;2022-10-31T05:52:26;13.60;99.90
22185;DHT22;11258;52.516;13.318;2022-10-31T05:54:52;13.70;99.90
22185;DHT22;11258;52.516;13.318;2022-10-31T05:57:18;13.70;99.90
22185;DHT22;11258;52.516;13.318;2022-10-31T05:59:43;13.80;99.90
22185;DHT22;11258;52.516;13.318;2022-10-31T06:02:09;13.70;99.90
22185;DHT22;11258;52.516;13.318;2022-10-31T06:04:34;13.80;99.90
22185;DHT22;11258;52.516;13.318;2022-10-31T06:07:00;13.80;99.90
22185;DHT22;11258;52.516;13.318;2022-10-31T06:09:25;13.80;99.90
22185;DHT22;11258;52.516;13.318;2022-10-31T06:11:51;13.90;99.90
22185;DHT22;11258;52.516;13.318;2022-10-31T06:14:16;13.90;99.90
22185;DHT22;11258;52.516;13.318;2022-10-31T06:16:42;13.90;99.90
22185;DHT22;11258;52.516;13.318;2022-10-31T06:19:07;14.00;99.90
22185;DHT22;11258;52.516;13.318;2022-10-31T06:21:33;14.10;99.90
22185;DHT22;11258;52.516;13.318;2022-10-31T06:23:58;14.10;99.90
22185;DHT22;11258;52.516;13.318;2022-10-31T06:26:24;14.20;99.90
22185;DHT22;11258;52.516;13.318;2022-10-31T06:28:49;14.30;99.90
22185;DHT22;11258;52.516;13.318;2022-10-31T06:31:15;14.40;99.90
22185;DHT22;11258;52.516;13.318;2022-10-31T06:33:41;15.00;99.90
22185;DHT22;11258;52.516;13.318;2022-10-31T06:36:07;15.60;99.90
22185;DHT22;11258;52.516;13.318;2022-10-31T06:38:33;16.20;99.90
22185;DHT22;11258;52.516;13.318;2022-10-31T06:41:02;16.60;99.90
22185;DHT22;11258;52.516;13.318;2022-10-31T06:43:29;17.00;99.90
22185;DHT22;11258;52.516;13.318;2022-10-31T06:45:55;16.90;99.90
22185;DHT22;11258;52.516;13.318;2022-10-31T06:48:20;17.50;99.90
22185;DHT22;11258;52.516;13.318;2022-10-31T06:50:46;17.40;99.90
22185;DHT22;11258;52.516;13.318;2022-10-31T06:53:12;17.20;99.90
22185;DHT22;11258;52.516;13.318;2022-10-31T06:55:39;16.70;99.90
22185;DHT22;11258;52.516;13.318;2022-10-31T06:58:05;17.20;99.90
22185;DHT22;11258;52.516;13.318;2022-10-31T07:00:31;17.90;99.90
22185;DHT22;11258;52.516;13.318;2022-10-31T07:03:02;18.60;99.90
22185;DHT22;11258;52.516;13.318;2022-10-31T07:05:29;18.90;99.90
22185;DHT22;11258;52.516;13.318;2022-10-31T07:07:57;19.00;99.90
22185;DHT22;11258;52.516;13.318;2022-10-31T07:10:24;19.40;99.90
22185;DHT22;11258;52.516;13.318;2022-10-31T07:12:58;19.80;99.90
22185;DHT22;11258;52.516;13.318;2022-10-31T07:15:28;20.30;99.90
22185;DHT22;11258;52.516;13.318;2022-10-31T07:17:58;20.60;99.90
22185;DHT22;11258;52.516;13.318;2022-10-31T07:20:24;20.70;99.90
22185;DHT22;11258;52.516;13.318;2022-10-31T07:22:49;20.90;99.90
22185;DHT22;11258;52.516;13.318;2022-10-31T07:25:15;21.20;99.90
22185;DHT22;11258;52.516;13.318;2022-10-31T07:27:42;21.60;99.90
22185;DHT22;11258;52.516;13.318;2022-10-31T07:30:09;21.80;99.90
22185;DHT22;11258;52.516;13.318;2022-10-31T07:32:46;21.90;99.90
22185;DHT22;11258;52.516;13.318;2022-10-31T07:35:17;21.90;99.90
22185;DHT22;11258;52.516;13.318;2022-10-31T07:37:43;22.00;99.90
22185;DHT22;11258;52.516;13.318;2022-10-31T07:40:09;21.50;99.90
22185;DHT22;11258;52.516;13.318;2022-10-31T07:42:39;20.90;99.90
22185;DHT22;11258;52.516;13.318;2022-10-31T07:45:07;21.00;99.90
22185;DHT22;11258;52.516;13.318;2022-10-31T07:47:50;20.90;99.90
22185;DHT22;11258;52.516;13.318;2022-10-31T07:50:18;20.50;99.90
22185;DHT22;11258;52.516;13.318;2022-10-31T07:52:44;19.80;99.90
22185;DHT22;11258;52.516;13.318;2022-10-31T07:55:11;19.30;99.90
22185;DHT22;11258;52.516;13.318;2022-10-31T07:57:36;19.00;99.90
22185;DHT22;11258;52.516;13.318;2022-10-31T08:00:07;18.80;99.90
22185;DHT22;11258;52.516;13.318;2022-10-31T08:02:33;18.50;99.90
22185;DHT22;11258;52.516;13.318;2022-10-31T08:04:59;18.20;99.90
22185;DHT22;11258;52.516;13.318;2022-10-31T08:07:25;17.90;99.90
22185;DHT22;11258;52.516;13.318;2022-10-31T08:09:51;17.80;99.90
22185;DHT22;11258;52.516;13.318;2022-10-31T08:12:17;17.70;99.90
22185;DHT22;11258;52.516;13.318;2022-10-31T08:14:43;17.60;99.90
22185;DHT22;11258;52.516;13.318;2022-10-31T08:17:10;17.40;99.90
22185;DHT22;11258;52.516;13.318;2022-10-31T08:19:35;17.30;99.90
22185;DHT22;11258;52.516;13.318;2022-10-31T08:22:01;17.40;99.90
22185;DHT22;11258;52.516;13.318;2022-10-31T08:24:26;17.20;99.90
22185;DHT22;11258;52.516;13.318;2022-10-31T08:26:52;17.00;99.90
22185;DHT22;11258;52.516;13.318;2022-10-31T08:29:18;17.00;99.90
22185;DHT22;11258;52.516;13.318;2022-10-31T08:31:43;16.90;99.90
22185;DHT22;11258;52.516;13.318;2022-10-31T08:34:09;17.00;99.90
22185;DHT22;11258;52.516;13.318;2022-10-31T08:36:34;16.90;99.90
22185;DHT22;11258;52.516;13.318;2022-10-31T08:39:00;16.90;99.90
22185;DHT22;11258;52.516;13.318;2022-10-31T08:41:26;17.00;99.90
22185;DHT22;11258;52.516;13.318;2022-10-31T08:43:51;17.20;99.90
22185;DHT22;11258;52.516;13.318;2022-10-31T08:46:17;17.60;99.90
22185;DHT22;11258;52.516;13.318;2022-10-31T08:48:43;17.90;99.90
22185;DHT22;11258;52.516;13.318;2022-10-31T08:51:10;18.10;99.90
22185;DHT22;11258;52.516;13.318;2022-10-31T08:53:35;18.00;99.90
22185;DHT22;11258;52.516;13.318;2022-10-31T08:56:01;18.10;99.90
22185;DHT22;11258;52.516;13.318;2022-10-31T08:58:27;17.70;99.90
22185;DHT22;11258;52.516;13.318;2022-10-31T09:00:54;17.90;99.90
22185;DHT22;11258;52.516;13.318;2022-10-31T09:03:25;18.20;99.90
22185;DHT22;11258;52.516;13.318;2022-10-31T09:05:56;18.30;99.90
22185;DHT22;11258;52.516;13.318;2022-10-31T09:08:22;18.10;99.90
22185;DHT22;11258;52.516;13.318;2022-10-31T09:10:48;18.00;99.90
22185;DHT22;11258;52.516;13.318;2022-10-31T09:13:16;18.00;99.90
22185;DHT22;11258;52.516;13.318;2022-10-31T09:15:43;18.10;99.90
22185;DHT22;11258;52.516;13.318;2022-10-31T09:18:10;18.40;99.90
22185;DHT22;11258;52.516;13.318;2022-10-31T09:20:37;18.50;99.90
22185;DHT22;11258;52.516;13.318;2022-10-31T09:23:22;18.30;99.90
22185;DHT22;11258;52.516;13.318;2022-10-31T09:25:50;18.20;99.90
22185;DHT22;11258;52.516;13.318;2022-10-31T09:28:19;18.20;99.90
22185;DHT22;11258;52.516;13.318;2022-10-31T09:30:47;18.30;99.90
22185;DHT22;11258;52.516;13.318;2022-10-31T09:33:13;18.40;99.90
22185;DHT22;11258;52.516;13.318;2022-10-31T09:35:39;18.30;99.90
22185;DHT22;11258;52.516;13.318;2022-10-31T09:38:10;18.40;99.90
22185;DHT22;11258;52.516;13.318;2022-10-31T09:40:41;18.40;99.90
22185;DHT22;11258;52.516;13.318;2022-10-31T09:43:09;18.40;99.90
22185;DHT22;11258;52.516;13.318;2022-10-31T09:46:04;18.50;99.90
22185;DHT22;11258;52.516;13.318;2022-10-31T09:48:37;18.50;99.90
22185;DHT22;11258;52.516;13.318;2022-10-31T09:51:08;18.50;99.90
22185;DHT22;11258;52.516;13.318;2022-10-31T09:56:18;18.80;99.90
22185;DHT22;11258;52.516;13.318;2022-10-31T09:58:55;18.90;99.90
22185;DHT22;11258;52.516;13.318;2022-10-31T10:01:50;19.00;99.90
22185;DHT22;11258;52.516;13.318;2022-10-31T10:04:53;19.20;99.90
22185;DHT22;11258;52.516;13.318;2022-10-31T10:21:18;19.80;99.90
22185;DHT22;11258;52.516;13.318;2022-10-31T10:24:09;19.50;99.90
22185;DHT22;11258;52.516;13.318;2022-10-31T10:26:40;19.60;99.90
22185;DHT22;11258;52.516;13.318;2022-10-31T10:29:39;19.70;99.90
22185;DHT22;11258;52.516;13.318;2022-10-31T10:32:13;19.90;99.90
22185;DHT22;11258;52.516;13.318;2022-10-31T10:35:00;20.00;99.90
22185;DHT22;11258;52.516;13.318;2022-10-31T10:37:31;20.10;99.90
22185;DHT22;11258;52.516;13.318;2022-10-31T10:40:15;20.00;99.90
22185;DHT22;11258;52.516;13.318;2022-10-31T10:42:45;20.10;99.90
22185;DHT22;11258;52.516;13.318;2022-10-31T10:45:34;20.10;99.90
22185;DHT22;11258;52.516;13.318;2022-10-31T10:48:34;20.10;99.90
22185;DHT22;11258;52.516;13.318;2022-10-31T10:51:03;20.00;99.90
22185;DHT22;11258;52.516;13.318;2022-10-31T10:53:50;19.90;99.90
22185;DHT22;11258;52.516;13.318;2022-10-31T10:58:59;20.00;99.90
22185;DHT22;11258;52.516;13.318;2022-10-31T11:01:25;20.10;99.90
22185;DHT22;11258;52.516;13.318;2022-10-31T11:03:50;20.20;99.90
22185;DHT22;11258;52.516;13.318;2022-10-31T11:06:20;20.20;99.90
22185;DHT22;11258;52.516;13.318;2022-10-31T11:08:50;20.10;99.90
22185;DHT22;11258;52.516;13.318;2022-10-31T11:11:29;20.10;99.90
22185;DHT22;11258;52.516;13.318;2022-10-31T11:14:15;20.10;99.90
22185;DHT22;11258;52.516;13.318;2022-10-31T11:16:44;20.20;99.90
22185;DHT22;11258;52.516;13.318;2022-10-31T11:19:23;20.30;99.90
22185;DHT22;11258;52.516;13.318;2022-10-31T11:21:50;20.40;99.90
22185;DHT22;11258;52.516;13.318;2022-10-31T11:24:21;20.40;99.90
22185;DHT22;11258;52.516;13.318;2022-10-31T11:26:49;20.50;99.90
22185;DHT22;11258;52.516;13.318;2022-10-31T11:29:23;20.20;99.90
22185;DHT22;11258;52.516;13.318;2022-10-31T11:31:52;20.20;99.90
22185;DHT22;11258;52.516;13.318;2022-10-31T11:34:26;20.20;99.90
22185;DHT22;11258;52.516;13.318;2022-10-31T11:36:53;20.30;99.90
22185;DHT22;11258;52.516;13.318;2022-10-31T11:39:23;20.30;99.90
22185;DHT22;11258;52.516;13.318;2022-10-31T11:41:50;20.30;99.90
22185;DHT22;11258;52.516;13.318;2022-10-31T11:44:20;20.20;99.90
22185;DHT22;11258;52.516;13.318;2022-10-31T11:46:50;20.20;99.90
22185;DHT22;11258;52.516;13.318;2022-10-31T11:49:37;20.10;99.90
22185;DHT22;11258;52.516;13.318;2022-10-31T11:52:13;20.00;99.90
22185;DHT22;11258;52.516;13.318;2022-10-31T11:54:47;20.00;99.90
22185;DHT22;11258;52.516;13.318;2022-10-31T11:57:25;20.00;99.90
22185;DHT22;11258;52.516;13.318;2022-10-31T11:59:54;19.90;99.90
22185;DHT22;11258;52.516;13.318;2022-10-31T12:02:20;20.00;99.90
22185;DHT22;11258;52.516;13.318;2022-10-31T12:05:19;20.00;99.90
22185;DHT22;11258;52.516;13.318;2022-10-31T12:07:47;20.00;99.90
22185;DHT22;11258;52.516;13.318;2022-10-31T12:10:13;20.00;99.90
22185;DHT22;11258;52.516;13.318;2022-10-31T12:13:01;19.80;99.90
22185;DHT22;11258;52.516;13.318;2022-10-31T12:15:33;19.80;99.90
22185;DHT22;11258;52.516;13.318;2022-10-31T12:18:24;19.70;99.90
22185;DHT22;11258;52.516;13.318;2022-10-31T12:21:16;19.70;99.90
22185;DHT22;11258;52.516;13.318;2022-10-31T12:30:02;19.50;99.90
22185;DHT22;11258;52.516;13.318;2022-10-31T12:37:50;19.40;99.90
22185;DHT22;11258;52.516;13.318;2022-10-31T12:43:34;19.40;99.90
22185;DHT22;11258;52.516;13.318;2022-10-31T12:46:02;19.50;99.90
22185;DHT22;11258;52.516;13.318;2022-10-31T12:59:43;19.50;99.90
22185;DHT22;11258;52.516;13.318;2022-10-31T13:02:26;19.40;99.90
22185;DHT22;11258;52.516;13.318;2022-10-31T13:05:03;19.40;99.90
22185;DHT22;11258;52.516;13.318;2022-10-31T13:07:42;19.50;99.90
22185;DHT22;11258;52.516;13.318;2022-10-31T13:10:26;19.50;99.90
22185;DHT22;11258;52.516;13.318;2022-10-31T13:13:00;19.50;99.90
22185;DHT22;11258;52.516;13.318;2022-10-31T13:15:30;19.40;99.90
22185;DHT22;11258;52.516;13.318;2022-10-31T13:18:00;19.30;99.90
22185;DHT22;11258;52.516;13.318;2022-10-31T13:20:34;19.40;99.90
22185;DHT22;11258;52.516;13.318;2022-10-31T13:23:28;19.40;99.90
22185;DHT22;11258;52.516;13.318;2022-10-31T13:25:56;19.30;99.90
22185;DHT22;11258;52.516;13.318;2022-10-31T13:28:33;19.30;99.90
22185;DHT22;11258;52.516;13.318;2022-10-31T13:30:59;19.20;99.90
22185;DHT22;11258;52.516;13.318;2022-10-31T13:33:35;19.20;99.90
22185;DHT22;11258;52.516;13.318;2022-10-31T13:44:24;18.90;99.90
22185;DHT22;11258;52.516;13.318;2022-10-31T13:46:54;18.90;99.90
22185;DHT22;11258;52.516;13.318;2022-10-31T13:52:26;18.90;99.90
22185;DHT22;11258;52.516;13.318;2022-10-31T13:54:53;18.80;99.90
22185;DHT22;11258;52.516;13.318;2022-10-31T13:59:56;18.70;99.90
22185;DHT22;11258;52.516;13.318;2022-10-31T14:02:31;18.50;99.90
22185;DHT22;11258;52.516;13.318;2022-10-31T14:05:00;18.60;99.90
22185;DHT22;11258;52.516;13.318;2022-10-31T14:07:29;18.40;99.90
22185;DHT22;11258;52.516;13.318;2022-10-31T14:10:32;18.40;99.90
22185;DHT22;11258;52.516;13.318;2022-10-31T14:13:15;18.30;99.90
22185;DHT22;11258;52.516;13.318;2022-10-31T14:15:55;18.10;99.90
22185;DHT22;11258;52.516;13.318;2022-10-31T14:18:37;17.90;99.90
22185;DHT22;11258;52.516;13.318;2022-10-31T14:21:39;17.90;99.90
22185;DHT22;11258;52.516;13.318;2022-10-31T14:24:31;17.80;99.90
22185;DHT22;11258;52.516;13.318;2022-10-31T14:29:47;17.70;99.90
22185;DHT22;11258;52.516;13.318;2022-10-31T14:34:41;17.60;99.90
22185;DHT22;11258;52.516;13.318;2022-10-31T14:45:33;17.50;99.90
22185;DHT22;11258;52.516;13.318;2022-10-31T14:50:57;17.30;99.90
22185;DHT22;11258;52.516;13.318;2022-10-31T14:55:56;17.20;99.90
22185;DHT22;11258;52.516;13.318;2022-10-31T14:58:33;17.10;99.90
22185;DHT22;11258;52.516;13.318;2022-10-31T15:01:00;17.10;99.90
22185;DHT22;11258;52.516;13.318;2022-10-31T15:03:39;17.00;99.90
22185;DHT22;11258;52.516;13.318;2022-10-31T15:06:15;17.10;99.90
22185;DHT22;11258;52.516;13.318;2022-10-31T15:08:53;17.00;99.90
22185;DHT22;11258;52.516;13.318;2022-10-31T15:11:23;16.90;99.90
22185;DHT22;11258;52.516;13.318;2022-10-31T15:13:54;16.90;99.90
22185;DHT22;11258;52.516;13.318;2022-10-31T15:16:31;16.80;99.90
22185;DHT22;11258;52.516;13.318;2022-10-31T15:19:00;16.70;99.90
22185;DHT22;11258;52.516;13.318;2022-10-31T15:21:28;16.70;99.90
22185;DHT22;11258;52.516;13.318;2022-10-31T15:23:56;16.60;99.90
22185;DHT22;11258;52.516;13.318;2022-10-31T15:26:26;16.60;99.90
22185;DHT22;11258;52.516;13.318;2022-10-31T15:29:04;16.40;99.90
22185;DHT22;11258;52.516;13.318;2022-10-31T15:31:30;16.30;99.90
22185;DHT22;11258;52.516;13.318;2022-10-31T15:34:03;16.20;99.90
22185;DHT22;11258;52.516;13.318;2022-10-31T15:36:30;16.30;99.90
22185;DHT22;11258;52.516;13.318;2022-10-31T15:38:57;16.30;99.90
22185;DHT22;11258;52.516;13.318;2022-10-31T15:41:31;16.20;99.90
22185;DHT22;11258;52.516;13.318;2022-10-31T15:44:02;16.20;99.90
22185;DHT22;11258;52.516;13.318;2022-10-31T15:46:28;16.20;99.90
22185;DHT22;11258;52.516;13.318;2022-10-31T15:48:55;16.20;99.90
22185;DHT22;11258;52.516;13.318;2022-10-31T15:51:28;16.20;99.90
22185;DHT22;11258;52.516;13.318;2022-10-31T15:53:55;16.20;99.90
22185;DHT22;11258;52.516;13.318;2022-10-31T15:56:28;16.20;99.90
22185;DHT22;11258;52.516;13.318;2022-10-31T15:58:55;16.10;99.90
22185;DHT22;11258;52.516;13.318;2022-10-31T16:01:30;16.10;99.90
22185;DHT22;11258;52.516;13.318;2022-10-31T16:06:35;16.10;99.90
22185;DHT22;11258;52.516;13.318;2022-10-31T16:09:02;16.00;99.90
22185;DHT22;11258;52.516;13.318;2022-10-31T16:11:37;16.10;99.90
22185;DHT22;11258;52.516;13.318;2022-10-31T16:16:47;16.00;99.90
22185;DHT22;11258;52.516;13.318;2022-10-31T16:19:36;15.90;99.90
22185;DHT22;11258;52.516;13.318;2022-10-31T16:22:11;15.90;99.90
22185;DHT22;11258;52.516;13.318;2022-10-31T16:24:53;15.80;99.90
22185;DHT22;11258;52.516;13.318;2022-10-31T16:27:31;15.80;99.90
22185;DHT22;11258;52.516;13.318;2022-10-31T16:29:58;15.80;99.90
22185;DHT22;11258;52.516;13.318;2022-10-31T16:35:17;15.80;99.90
22185;DHT22;11258;52.516;13.318;2022-10-31T16:37:43;15.70;99.90
22185;DHT22;11258;52.516;13.318;2022-10-31T16:40:18;15.80;99.90
22185;DHT22;11258;52.516;13.318;2022-10-31T16:42:45;15.70;99.90
22185;DHT22;11258;52.516;13.318;2022-10-31T16:45:21;15.70;99.90
22185;DHT22;11258;52.516;13.318;2022-10-31T16:47:47;15.60;99.90
22185;DHT22;11258;52.516;13.318;2022-10-31T16:50:25;15.70;99.90
22185;DHT22;11258;52.516;13.318;2022-10-31T16:52:52;15.70;99.90
22185;DHT22;11258;52.516;13.318;2022-10-31T16:55:19;15.50;99.90
22185;DHT22;11258;52.516;13.318;2022-10-31T16:57:47;15.60;99.90
22185;DHT22;11258;52.516;13.318;2022-10-31T17:00:21;15.60;99.90
22185;DHT22;11258;52.516;13.318;2022-10-31T17:02:48;15.50;99.90
22185;DHT22;11258;52.516;13.318;2022-10-31T17:05:16;15.60;99.90
22185;DHT22;11258;52.516;13.318;2022-10-31T17:07:42;15.60;99.90
22185;DHT22;11258;52.516;13.318;2022-10-31T17:10:08;15.50;99.90
22185;DHT22;11258;52.516;13.318;2022-10-31T17:12:34;15.60;99.90
22185;DHT22;11258;52.516;13.318;2022-10-31T17:15:01;15.60;99.90
22185;DHT22;11258;52.516;13.318;2022-10-31T17:17:26;15.50;99.90
22185;DHT22;11258;52.516;13.318;2022-10-31T17:19:52;15.60;99.90
22185;DHT22;11258;52.516;13.318;2022-10-31T17:22:17;15.60;99.90
22185;DHT22;11258;52.516;13.318;2022-10-31T17:24:43;15.60;99.90
22185;DHT22;11258;52.516;13.318;2022-10-31T17:27:09;15.70;99.90